Time;durP1;ratioP1;P1;durP2;ratioP2;P2;SDS_P1;SDS_P2;PMS_P1;PMS_P2;Temp;Humidity;BMP_temperature;BMP_pressure;BME280_temperature;BME280_humidity;BME280_pressure;Samples;Min_cycle;Max_cycle;Signal;HPM_P1;HPM_P2
2021/11/13 00:00:03;;;;;;;;;;;;;;;4.54;83.83;98419.86;1801899;79;20170;-93
2021/11/13 00:02:31;;;;;;;;;;;;;;;4.49;83.84;98423.95;1801531;79;20488;-92
2021/11/13 00:04:57;;;;;;;;;;;;;;;4.47;83.86;98418.48;1802397;79;20316;-92
2021/11/13 00:07:23;;;;;;;;;;;;;;;4.43;83.89;98422.94;1802141;79;25953;-93
2021/11/13 00:09:49;;;;;;;;;;;;;;;4.39;83.93;98420.11;1801802;79;24505;-92
2021/11/13 00:12:16;;;;;;;;;;;;;;;4.36;83.96;98422.01;1802211;79;20269;-92
2021/11/13 00:14:44;;;;;;;;;;;;;;;4.27;83.98;98414.63;1801927;79;24948;-91
2021/11/13 00:17:09;;;;;;;;;;;;;;;4.23;84.02;98406.16;1801998;79;22037;-92
2021/11/13 00:19:35;;;;;;;;;;;;;;;4.18;84.03;98415.44;1801986;79;20964;-92
2021/11/13 00:22:02;;;;;;;;;;;;;;;4.19;84.07;98413.24;1801737;79;20280;-92
2021/11/13 00:24:28;;;;;;;;;;;;;;;4.18;84.10;98401.64;1801915;79;20472;-91
2021/11/13 00:26:54;;;;;;;;;;;;;;;4.17;84.17;98401.25;1802257;79;25508;-93
2021/11/13 00:29:20;;;;;;;;;;;;;;;4.18;84.21;98401.20;1802022;79;20815;-92
2021/11/13 00:31:46;;;;;;;;;;;;;;;4.20;84.27;98397.22;1802161;79;26011;-92
2021/11/13 00:34:12;;;;;;;;;;;;;;;4.29;84.35;98394.69;1801937;79;24704;-93
2021/11/13 00:36:38;;;;;;;;;;;;;;;4.37;84.43;98394.71;1802056;79;20275;-91
2021/11/13 00:39:04;;;;;;;;;;;;;;;4.45;84.52;98392.63;1802062;79;20732;-91
2021/11/13 00:41:30;;;;;;;;;;;;;;;4.49;84.60;98386.38;1781785;79;22153;-91
2021/11/13 00:43:58;;;;;;;;;;;;;;;4.50;84.66;98388.52;1801850;79;26689;-92
2021/11/13 00:46:24;;;;;;;;;;;;;;;4.51;84.70;98388.46;1801990;79;24639;-92
2021/11/13 00:48:50;;;;;;;;;;;;;;;4.62;84.78;98384.08;1802112;79;20326;-91
2021/11/13 00:51:16;;;;;;;;;;;;;;;4.70;84.82;98383.24;1801688;79;20244;-92
2021/11/13 00:53:42;;;;;;;;;;;;;;;4.70;84.90;98377.22;1802000;79;20930;-92
2021/11/13 00:56:08;;;;;;;;;;;;;;;4.64;84.92;98372.70;1802027;79;21171;-93
2021/11/13 00:58:36;;;;;;;;;;;;;;;4.69;84.96;98374.27;1801811;79;24559;-92
2021/11/13 01:01:02;;;;;;;;;;;;;;;4.78;84.99;98378.55;1802090;79;20245;-91
2021/11/13 01:03:28;;;;;;;;;;;;;;;4.83;85.03;98370.55;1801975;79;25050;-91
2021/11/13 01:05:54;;;;;;;;;;;;;;;4.82;85.05;98377.94;1802354;79;20301;-92
2021/11/13 01:08:20;;;;;;;;;;;;;;;4.83;85.08;98372.69;1808543;78;21009;-91
2021/11/13 01:10:46;;;;;;;;;;;;;;;4.86;85.09;98372.98;1801503;79;24464;-92
2021/11/13 01:13:13;;;;;;;;;;;;;;;4.85;85.11;98375.22;1802032;79;20284;-93
2021/11/13 01:15:39;;;;;;;;;;;;;;;4.87;85.13;98375.96;1801540;79;24983;-92
2021/11/13 01:18:05;;;;;;;;;;;;;;;4.83;85.14;98367.50;1801909;79;21935;-93
2021/11/13 01:20:31;;;;;;;;;;;;;;;4.80;85.14;98368.12;1801949;79;26942;-91
2021/11/13 01:22:58;;;;;;;;;;;;;;;4.72;85.12;98359.84;1801795;79;24602;-92
2021/11/13 01:25:24;;;;;;;;;;;;;;;4.69;85.11;98358.72;1781413;79;20315;-92
2021/11/13 01:27:50;;;;;;;;;;;;;;;4.69;85.07;98359.52;1801581;79;24909;-92
2021/11/13 01:30:16;;;;;;;;;;;;;;;4.74;85.08;98356.29;1802344;79;20296;-92
2021/11/13 01:32:43;;;;;;;;;;;;;;;4.69;85.08;98354.34;1802330;79;21798;-92
2021/11/13 01:35:09;;;;;;;;;;;;;;;4.70;85.08;98351.30;1801628;79;24496;-92
2021/11/13 01:37:36;;;;;;;;;;;;;;;4.74;85.10;98347.67;1781772;79;20246;-91
2021/11/13 01:40:03;;;;;;;;;;;;;;;4.72;85.09;98347.73;1801850;79;25031;-92
2021/11/13 01:42:30;;;;;;;;;;;;;;;4.63;85.10;98339.11;1801888;79;22057;-93
2021/11/13 01:44:56;;;;;;;;;;;;;;;4.55;85.07;98343.80;1801873;79;25984;-92
2021/11/13 01:47:22;;;;;;;;;;;;;;;4.52;85.05;98343.95;1808079;78;24764;-92
2021/11/13 01:49:48;;;;;;;;;;;;;;;4.46;85.05;98338.61;1801997;79;20241;-92
2021/11/13 01:52:15;;;;;;;;;;;;;;;4.42;85.02;98334.45;1801280;79;24998;-93
2021/11/13 01:54:42;;;;;;;;;;;;;;;4.35;85.00;98327.91;1802074;79;22137;-91
2021/11/13 01:57:11;;;;;;;;;;;;;;;4.40;84.99;98335.45;1801987;79;26000;-92
2021/11/13 01:59:37;;;;;;;;;;;;;;;4.52;85.03;98331.84;1802011;79;24677;-91
2021/11/13 02:02:04;;;;;;;;;;;;;;;4.61;85.07;98331.84;1801927;79;20194;-92
2021/11/13 02:04:30;;;;;;;;;;;;;;;4.63;85.12;98328.73;1802334;79;24951;-91
2021/11/13 02:06:56;;;;;;;;;;;;;;;4.70;85.14;98330.56;1802027;79;22699;-91
2021/11/13 02:09:22;;;;;;;;;;;;;;;4.71;85.15;98328.36;1801873;79;25971;-92
2021/11/13 02:11:48;;;;;;;;;;;;;;;4.74;85.21;98326.48;1802119;79;24417;-92
2021/11/13 02:14:15;;;;;;;;;;;;;;;4.70;85.21;98322.33;1801989;79;20232;-93
2021/11/13 02:16:40;;;;;;;;;;;;;;;4.65;85.20;98328.19;1802029;79;25078;-91
2021/11/13 02:22:28;;;;;;;;;;;;;;;4.27;85.11;98311.86;1801864;79;22083;-92
2021/11/13 02:24:54;;;;;;;;;;;;;;;4.20;85.01;98324.70;1801993;79;24384;-92
2021/11/13 02:27:20;;;;;;;;;;;;;;;4.20;84.99;98317.77;1802228;79;20331;-91
2021/11/13 02:29:46;;;;;;;;;;;;;;;4.27;84.96;98318.78;1802046;79;25135;-93
2021/11/13 02:32:12;;;;;;;;;;;;;;;4.19;84.96;98313.53;1808365;79;20752;-91
2021/11/13 02:34:38;;;;;;;;;;;;;;;4.05;84.92;98315.05;1802370;79;26030;-91
2021/11/13 02:37:05;;;;;;;;;;;;;;;3.93;84.90;98319.03;1801980;79;20820;-92
2021/11/13 02:39:31;;;;;;;;;;;;;;;3.84;84.87;98315.57;1802139;79;20242;-91
2021/11/13 02:41:57;;;;;;;;;;;;;;;3.90;84.86;98315.75;1801799;79;25212;-92
2021/11/13 02:44:26;;;;;;;;;;;;;;;3.98;84.87;98321.44;1808460;79;20285;-93
2021/11/13 02:46:51;;;;;;;;;;;;;;;4.19;84.91;98315.27;1802604;79;25992;-93
2021/11/13 02:49:17;;;;;;;;;;;;;;;4.39;85.01;98312.59;1802307;79;20284;-92
2021/11/13 02:51:44;;;;;;;;;;;;;;;4.45;85.08;98313.60;1802085;79;20218;-92
2021/11/13 02:54:10;;;;;;;;;;;;;;;4.48;85.14;98312.14;1801944;79;24997;-92
2021/11/13 02:56:36;;;;;;;;;;;;;;;4.47;85.22;98313.53;1802184;79;20197;-91
2021/11/13 02:59:02;;;;;;;;;;;;;;;4.44;85.25;98309.33;1802202;79;20904;-92
2021/11/13 03:01:28;;;;;;;;;;;;;;;4.44;85.26;98308.48;1802230;79;20276;-92
2021/11/13 03:03:55;;;;;;;;;;;;;;;4.42;85.26;98308.55;1802015;79;20206;-92
2021/11/13 03:06:22;;;;;;;;;;;;;;;4.45;85.28;98303.69;1802213;79;25072;-91
2021/11/13 03:08:50;;;;;;;;;;;;;;;4.34;85.28;98293.84;1801820;79;22065;-91
2021/11/13 03:11:16;;;;;;;;;;;;;;;4.22;85.25;98289.22;1801839;79;26017;-91
2021/11/13 03:13:43;;;;;;;;;;;;;;;4.14;85.19;98290.89;1808015;79;24841;-92
2021/11/13 03:16:11;;;;;;;;;;;;;;;4.11;85.19;98287.58;1801939;79;20607;-91
2021/11/13 03:18:37;;;;;;;;;;;;;;;4.07;85.15;98286.89;1801984;79;24949;-92
2021/11/13 03:21:07;;;;;;;;;;;;;;;4.10;85.13;98287.19;1801881;79;22017;-90
2021/11/13 03:23:37;;;;;;;;;;;;;;;4.12;85.15;98289.27;1802438;79;26203;-92
2021/11/13 03:26:04;;;;;;;;;;;;;;;4.05;85.16;98291.75;1801854;79;24531;-92
2021/11/13 03:28:31;;;;;;;;;;;;;;;4.03;85.14;98288.41;1802000;79;20226;-91
2021/11/13 03:31:02;;;;;;;;;;;;;;;4.11;85.17;98295.35;1802038;79;25839;-91
2021/11/13 03:33:29;;;;;;;;;;;;;;;4.11;85.21;98288.88;1802123;79;22004;-91
2021/11/13 03:35:55;;;;;;;;;;;;;;;4.01;85.22;98290.22;1802061;79;26771;-91
2021/11/13 03:38:21;;;;;;;;;;;;;;;3.92;85.20;98294.53;1801955;79;24509;-92
2021/11/13 03:40:48;;;;;;;;;;;;;;;3.92;85.18;98295.82;1801900;79;20316;-92
2021/11/13 03:43:15;;;;;;;;;;;;;;;3.93;85.18;98289.26;1801883;79;25710;-92
2021/11/13 03:45:42;;;;;;;;;;;;;;;3.97;85.20;98292.57;1801937;79;22207;-92
2021/11/13 03:48:08;;;;;;;;;;;;;;;3.94;85.22;98286.22;1801887;79;25950;-91
2021/11/13 03:50:35;;;;;;;;;;;;;;;3.96;85.23;98282.66;1801756;79;24682;-90
2021/11/13 03:53:01;;;;;;;;;;;;;;;3.91;85.28;98280.74;1808400;79;20405;-91
2021/11/13 03:55:27;;;;;;;;;;;;;;;3.86;85.28;98287.88;1801945;79;24995;-90
2021/11/13 03:57:53;;;;;;;;;;;;;;;3.89;85.27;98290.77;1801740;79;21973;-90
2021/11/13 04:00:21;;;;;;;;;;;;;;;3.91;85.30;98288.96;1801883;79;26718;-91
2021/11/13 04:02:49;;;;;;;;;;;;;;;3.86;85.32;98289.62;1801985;79;24574;-90
2021/11/13 04:05:15;;;;;;;;;;;;;;;3.81;85.32;98292.88;1802369;79;20242;-91
2021/11/13 04:07:42;;;;;;;;;;;;;;;3.85;85.34;98295.70;1801847;79;25656;-92
2021/11/13 04:10:08;;;;;;;;;;;;;;;3.95;85.38;98290.49;1801935;79;21952;-91
2021/11/13 04:12:35;;;;;;;;;;;;;;;4.01;85.44;98290.22;1801897;79;25978;-91
2021/11/13 04:15:02;;;;;;;;;;;;;;;3.95;85.47;98280.14;1801876;79;24448;-91
2021/11/13 04:17:28;;;;;;;;;;;;;;;3.92;85.49;98285.47;1808321;78;20210;-90
2021/11/13 04:19:54;;;;;;;;;;;;;;;3.87;85.50;98291.31;1802053;79;25040;-91
2021/11/13 04:22:20;;;;;;;;;;;;;;;3.87;85.52;98292.16;1801787;79;22113;-90
2021/11/13 04:24:47;;;;;;;;;;;;;;;3.90;85.54;98288.57;1802018;79;20971;-92
2021/11/13 04:27:15;;;;;;;;;;;;;;;3.89;85.56;98290.77;1801801;79;24424;-92
2021/11/13 04:29:40;;;;;;;;;;;;;;;3.87;85.57;98284.84;1802032;79;20178;-91
2021/11/13 04:32:07;;;;;;;;;;;;;;;3.89;85.59;98286.88;1801952;79;25551;-92
2021/11/13 04:34:44;;;;;;;;;;;;;;;3.95;85.63;98277.55;1802409;79;22025;-91
2021/11/13 04:37:02;;;;;;;;;;;;;;;4.04;85.68;98287.02;1802514;79;26706;-91
2021/11/13 04:39:28;;;;;;;;;;;;;;;4.08;85.73;98279.97;1801856;79;24478;-91
2021/11/13 04:41:54;;;;;;;;;;;;;;;4.12;85.78;98284.09;1801566;79;20244;-91
2021/11/13 04:44:21;;;;;;;;;;;;;;;4.07;85.79;98281.72;1801803;79;25200;-92
2021/11/13 04:46:47;;;;;;;;;;;;;;;4.08;85.80;98276.93;1801972;79;22088;-92
2021/11/13 04:49:13;;;;;;;;;;;;;;;4.13;85.86;98274.96;1802162;79;21055;-92
2021/11/13 04:51:39;;;;;;;;;;;;;;;4.18;85.88;98278.63;1807841;78;24670;-92
2021/11/13 04:54:05;;;;;;;;;;;;;;;4.29;85.93;98278.13;1801621;79;20249;-92
2021/11/13 04:56:31;;;;;;;;;;;;;;;4.32;85.96;98281.40;1807949;79;25446;-91
2021/11/13 04:58:57;;;;;;;;;;;;;;;4.30;86.00;98279.36;1802070;79;20304;-91
2021/11/13 05:01:23;;;;;;;;;;;;;;;4.25;86.00;98273.55;1801721;79;20702;-91
2021/11/13 05:07:12;;;;;;;;;;;;;;;4.10;85.96;98277.67;1801644;79;20162;-92
2021/11/13 05:09:38;;;;;;;;;;;;;;;4.12;85.94;98276.32;1801930;79;24945;-92
2021/11/13 05:12:04;;;;;;;;;;;;;;;4.12;85.91;98271.14;1801903;79;20210;-91
2021/11/13 05:14:30;;;;;;;;;;;;;;;4.10;85.89;98278.13;1801888;79;26074;-90
2021/11/13 05:16:56;;;;;;;;;;;;;;;4.08;85.88;98276.09;1801798;79;20262;-91
2021/11/13 05:19:22;;;;;;;;;;;;;;;4.07;85.89;98284.31;1801939;79;20253;-92
2021/11/13 05:21:48;;;;;;;;;;;;;;;4.07;85.86;98281.72;1801912;79;25756;-92
2021/11/13 05:24:14;;;;;;;;;;;;;;;4.17;85.89;98281.67;1801934;79;20786;-91
2021/11/13 05:26:40;;;;;;;;;;;;;;;4.27;85.88;98282.53;1801835;79;20954;-91
2021/11/13 05:29:06;;;;;;;;;;;;;;;4.37;85.93;98284.61;1802046;79;20898;-92
2021/11/13 05:31:32;;;;;;;;;;;;;;;4.43;85.96;98283.03;1801627;79;20268;-92
2021/11/13 05:33:58;;;;;;;;;;;;;;;4.40;85.93;98279.30;1802019;79;24957;-93
2021/11/13 05:36:24;;;;;;;;;;;;;;;4.47;85.94;98286.33;1802379;79;20280;-91
2021/11/13 05:38:50;;;;;;;;;;;;;;;4.50;85.92;98283.58;1802139;79;21075;-92
2021/11/13 05:41:16;;;;;;;;;;;;;;;4.47;85.90;98292.33;1802059;79;20249;-90
2021/11/13 05:47:04;;;;;;;;;;;;;;;4.48;85.85;98286.69;1801790;79;22910;-91
2021/11/13 05:49:30;;;;;;;;;;;;;;;4.38;85.79;98292.77;1802029;79;22188;-91
2021/11/13 05:51:56;;;;;;;;;;;;;;;4.41;85.74;98296.53;1807487;79;20950;-91
2021/11/13 05:54:22;;;;;;;;;;;;;;;4.48;85.71;98296.60;1819167;79;24436;-92
2021/11/13 05:56:48;;;;;;;;;;;;;;;4.60;85.65;98297.31;1819846;79;20408;-92
2021/11/13 05:59:14;;;;;;;;;;;;;;;4.48;85.62;98296.60;1819812;79;20577;-91
2021/11/13 06:01:41;;;;;;;;;;;;;;;4.34;85.54;98302.91;1819501;79;21978;-91
2021/11/13 06:04:07;;;;;;;;;;;;;;;4.19;85.46;98298.44;1820040;79;26036;-90
2021/11/13 06:06:33;;;;;;;;;;;;;;;4.09;85.39;98304.48;1819389;79;24566;-91
2021/11/13 06:08:59;;;;;;;;;;;;;;;4.01;85.30;98303.16;1819732;79;20331;-92
2021/11/13 06:11:25;;;;;;;;;;;;;;;3.99;85.26;98301.08;1819624;79;20331;-92
2021/11/13 06:13:51;;;;;;;;;;;;;;;4.09;85.22;98305.77;1820050;79;20237;-93
2021/11/13 06:16:17;;;;;;;;;;;;;;;4.15;85.20;98304.66;1819603;79;26722;-91
2021/11/13 06:18:43;;;;;;;;;;;;;;;4.11;85.18;98302.67;1819570;79;20253;-93
2021/11/13 06:21:09;;;;;;;;;;;;;;;4.06;85.18;98310.27;1820081;79;20261;-91
2021/11/13 06:23:37;;;;;;;;;;;;;;;3.98;85.14;98305.91;1819567;79;25811;-91
2021/11/13 06:26:03;;;;;;;;;;;;;;;3.94;85.10;98312.11;1819660;79;21942;-90
2021/11/13 06:28:30;;;;;;;;;;;;;;;3.93;85.06;98319.52;1819677;79;26036;-90
2021/11/13 06:30:56;;;;;;;;;;;;;;;3.91;85.05;98318.28;1819545;79;25319;-91
2021/11/13 06:33:22;;;;;;;;;;;;;;;3.89;85.05;98316.66;1819804;79;20268;-91
2021/11/13 06:35:48;;;;;;;;;;;;;;;3.91;85.02;98316.14;1820060;79;20197;-92
2021/11/13 06:38:14;;;;;;;;;;;;;;;3.84;85.01;98320.75;1819232;79;22223;-91
2021/11/13 06:40:40;;;;;;;;;;;;;;;3.76;84.98;98322.85;1819307;79;26009;-91
2021/11/13 06:43:06;;;;;;;;;;;;;;;3.76;84.97;98324.95;1819597;79;24485;-90
2021/11/13 06:45:33;;;;;;;;;;;;;;;3.79;84.94;98326.58;1819783;79;20146;-91
2021/11/13 06:47:59;;;;;;;;;;;;;;;3.82;84.96;98326.91;1819464;79;25062;-91
2021/11/13 06:50:25;;;;;;;;;;;;;;;3.87;84.98;98328.84;1819952;79;20300;-91
2021/11/13 06:52:51;;;;;;;;;;;;;;;3.89;85.00;98326.55;1809803;79;20995;-90
2021/11/13 06:55:17;;;;;;;;;;;;;;;3.93;85.02;98328.58;1801576;79;25334;-91
2021/11/13 06:57:43;;;;;;;;;;;;;;;3.90;85.05;98328.69;1801963;79;20822;-91
2021/11/13 07:00:11;;;;;;;;;;;;;;;3.85;85.05;98330.20;1801939;79;25035;-93
2021/11/13 07:02:37;;;;;;;;;;;;;;;3.81;85.02;98331.70;1801813;79;21956;-90
2021/11/13 07:05:04;;;;;;;;;;;;;;;3.79;85.02;98336.48;1801836;79;25994;-90
2021/11/13 07:07:35;;;;;;;;;;;;;;;3.82;85.01;98339.37;1801747;79;24388;-91
2021/11/13 07:09:58;;;;;;;;;;;;;;;3.85;85.02;98336.67;1801149;79;20305;-91
2021/11/13 07:12:24;;;;;;;;;;;;;;;3.89;85.03;98333.03;1802221;79;25624;-91
2021/11/13 07:14:50;;;;;;;;;;;;;;;3.93;85.03;98337.15;1802004;79;20440;-92
2021/11/13 07:17:16;;;;;;;;;;;;;;;3.93;85.02;98334.56;1801861;79;21082;-91
2021/11/13 07:19:42;;;;;;;;;;;;;;;3.93;85.03;98333.75;1801908;79;20233;-91
2021/11/13 07:22:08;;;;;;;;;;;;;;;3.89;85.03;98332.19;1801886;79;20178;-92
2021/11/13 07:24:34;;;;;;;;;;;;;;;3.83;85.01;98328.12;1802118;79;25594;-91
2021/11/13 07:27:00;;;;;;;;;;;;;;;3.83;84.99;98335.05;1808032;79;20370;-91
2021/11/13 07:29:28;;;;;;;;;;;;;;;3.85;85.01;98330.65;1802008;79;21000;-91
2021/11/13 07:31:54;;;;;;;;;;;;;;;3.88;85.01;98334.38;1802105;79;24623;-90
2021/11/13 07:34:20;;;;;;;;;;;;;;;3.91;85.01;98332.52;1802183;79;20249;-92
2021/11/13 07:36:47;;;;;;;;;;;;;;;3.95;85.02;98328.88;1801564;79;25710;-91
2021/11/13 07:39:13;;;;;;;;;;;;;;;4.00;85.05;98330.80;1801597;79;22026;-92
2021/11/13 07:41:39;;;;;;;;;;;;;;;4.01;85.05;98331.64;1801884;79;26101;-91
2021/11/13 07:44:05;;;;;;;;;;;;;;;4.11;85.07;98332.45;1801882;79;20244;-90
2021/11/13 07:46:31;;;;;;;;;;;;;;;4.12;85.09;98333.30;1801792;79;20241;-90
2021/11/13 07:48:57;;;;;;;;;;;;;;;4.25;85.15;98325.81;1802069;79;20213;-90
2021/11/13 07:51:23;;;;;;;;;;;;;;;4.28;85.16;98329.54;1802664;79;20316;-91
2021/11/13 07:53:49;;;;;;;;;;;;;;;4.29;85.18;98329.48;1816880;79;25964;-91
2021/11/13 07:56:16;;;;;;;;;;;;;;;4.35;85.18;98330.49;1819517;79;24452;-91
2021/11/13 07:58:43;;;;;;;;;;;;;;;4.34;85.19;98332.69;1819402;79;20174;-91
2021/11/13 08:01:09;;;;;;;;;;;;;;;4.25;85.19;98333.58;1819557;79;25746;-91
2021/11/13 08:03:35;;;;;;;;;;;;;;;4.22;85.17;98338.43;1819633;79;22109;-91
2021/11/13 08:06:01;;;;;;;;;;;;;;;4.20;85.15;98334.61;1819727;79;21017;-91
2021/11/13 08:08:27;;;;;;;;;;;;;;;4.18;85.14;98333.02;1819556;79;24897;-92
2021/11/13 08:10:53;;;;;;;;;;;;;;;4.18;85.11;98331.72;1820271;79;20253;-91
2021/11/13 08:13:19;;;;;;;;;;;;;;;4.11;85.10;98338.92;1819722;79;20723;-92
2021/11/13 08:15:46;;;;;;;;;;;;;;;4.07;85.08;98324.89;1819520;79;21867;-91
2021/11/13 08:18:12;;;;;;;;;;;;;;;4.01;85.07;98328.59;1819828;79;26134;-92
2021/11/13 08:20:39;;;;;;;;;;;;;;;4.05;85.06;98327.55;1819178;79;20870;-92
2021/11/13 08:23:09;;;;;;;;;;;;;;;4.07;85.06;98332.66;1819943;79;20464;-91
2021/11/13 08:25:33;;;;;;;;;;;;;;;4.06;85.07;98325.80;1819821;79;25118;-92
2021/11/13 08:27:59;;;;;;;;;;;;;;;4.06;85.10;98328.39;1819624;79;20241;-92
2021/11/13 08:30:28;;;;;;;;;;;;;;;4.05;85.12;98326.25;1819720;79;21012;-93
2021/11/13 08:32:53;;;;;;;;;;;;;;;4.00;85.12;98317.85;1819450;79;24452;-92
2021/11/13 08:35:19;;;;;;;;;;;;;;;3.98;85.13;98315.77;1819716;79;20921;-93
2021/11/13 08:37:46;;;;;;;;;;;;;;;4.02;85.15;98321.23;1819692;79;24981;-93
2021/11/13 08:40:12;;;;;;;;;;;;;;;4.01;85.18;98322.58;1819709;79;22958;-93
2021/11/13 08:46:00;;;;;;;;;;;;;;;3.94;85.22;98322.01;1819447;79;20536;-94
2021/11/13 08:48:26;;;;;;;;;;;;;;;3.95;85.24;98322.85;1819810;79;20332;-94
2021/11/13 08:50:52;;;;;;;;;;;;;;;3.99;85.26;98317.91;1819612;79;24937;-93
2021/11/13 08:53:19;;;;;;;;;;;;;;;4.00;85.30;98317.01;1819332;79;21893;-92
2021/11/13 08:55:45;;;;;;;;;;;;;;;4.03;85.34;98316.44;1820004;79;26610;-94
2021/11/13 08:58:11;;;;;;;;;;;;;;;4.06;85.38;98315.44;1819608;79;24419;-93
2021/11/13 09:00:39;;;;;;;;;;;;;;;4.09;85.42;98320.50;1819904;79;20607;-94
2021/11/13 09:03:06;;;;;;;;;;;;;;;4.13;85.46;98322.88;1819701;79;25819;-92
2021/11/13 09:05:32;;;;;;;;;;;;;;;4.19;85.53;98314.83;1819511;79;22727;-92
2021/11/13 09:07:59;;;;;;;;;;;;;;;4.32;85.59;98316.37;1819669;79;25950;-93
2021/11/13 09:10:26;;;;;;;;;;;;;;;4.45;85.66;98329.15;1792199;79;24550;-96
2021/11/13 09:12:52;;;;;;;;;;;;;;;4.54;85.74;98330.00;1819043;79;20575;-93
2021/11/13 09:15:23;;;;;;;;;;;;;;;4.69;85.84;98329.72;1818501;79;25107;-93
2021/11/13 09:17:48;;;;;;;;;;;;;;;4.80;85.90;98326.64;1819874;79;21942;-93
2021/11/13 09:20:14;;;;;;;;;;;;;;;4.74;85.98;98329.52;1819792;79;26839;-93
2021/11/13 09:22:40;;;;;;;;;;;;;;;4.66;85.98;98331.63;1819351;79;24645;-93
2021/11/13 09:25:09;;;;;;;;;;;;;;;4.59;85.96;98332.37;1819874;79;20344;-95
2021/11/13 09:27:39;;;;;;;;;;;;;;;4.49;85.92;98328.53;1819882;79;25003;-95
2021/11/13 09:30:06;;;;;;;;;;;;;;;4.43;85.88;98330.11;1819093;79;22070;-94
2021/11/13 09:32:33;;;;;;;;;;;;;;;4.40;85.85;98327.68;1818498;79;26154;-93
2021/11/13 09:34:59;;;;;;;;;;;;;;;4.33;85.80;98325.83;1818738;79;24402;-91
2021/11/13 09:37:25;;;;;;;;;;;;;;;4.34;85.80;98326.67;1819996;79;20175;-95
2021/11/13 09:39:51;;;;;;;;;;;;;;;4.33;85.79;98321.94;1819754;79;20256;-93
2021/11/13 09:42:17;;;;;;;;;;;;;;;4.36;85.80;98320.52;1819658;79;22074;-95
2021/11/13 09:44:43;;;;;;;;;;;;;;;4.40;85.80;98318.16;1819459;79;25947;-93
2021/11/13 09:47:10;;;;;;;;;;;;;;;4.42;85.83;98313.73;1818328;79;25271;-93
2021/11/13 09:49:36;;;;;;;;;;;;;;;4.48;85.86;98312.14;1818112;79;20291;-95
2021/11/13 09:52:03;;;;;;;;;;;;;;;4.54;85.92;98302.79;1792132;79;25044;-93
2021/11/13 09:54:29;;;;;;;;;;;;;;;4.55;85.99;98298.00;1797914;79;22117;-94
2021/11/13 09:56:55;;;;;;;;;;;;;;;4.64;86.01;98296.25;1800695;79;26381;-94
2021/11/13 09:59:22;;;;;;;;;;;;;;;4.76;86.08;98300.45;1794016;79;24406;-94
2021/11/13 10:01:48;;;;;;;;;;;;;;;4.84;86.13;98293.16;1794104;80;20259;-94
2021/11/13 10:04:14;;;;;;;;;;;;;;;4.90;86.18;98298.05;1794039;80;24963;-93
2021/11/13 10:06:40;;;;;;;;;;;;;;;4.90;86.20;98289.81;1800597;79;22350;-92
2021/11/13 10:09:06;;;;;;;;;;;;;;;4.93;86.23;98287.52;1794115;79;26063;-95
2021/11/13 10:11:34;;;;;;;;;;;;;;;4.98;86.24;98289.42;1800479;79;24747;-93
2021/11/13 10:14:00;;;;;;;;;;;;;;;5.08;86.29;98285.90;1793963;79;20221;-94
2021/11/13 10:16:36;;;;;;;;;;;;;;;5.17;86.35;98280.27;1800777;79;25454;-94
2021/11/13 10:19:04;;;;;;;;;;;;;;;5.18;86.37;98276.77;1773743;80;22071;-94
2021/11/13 10:21:30;;;;;;;;;;;;;;;5.18;86.40;98269.83;1792276;79;26089;-94
2021/11/13 10:23:59;;;;;;;;;;;;;;;5.24;86.40;98264.30;1774471;80;24415;-94
2021/11/13 10:26:28;;;;;;;;;;;;;;;5.38;86.44;98256.66;1794229;80;20284;-93
2021/11/13 10:28:56;;;;;;;;;;;;;;;5.53;86.47;98261.96;1794437;80;25014;-95
2021/11/13 10:31:23;;;;;;;;;;;;;;;5.63;86.50;98256.20;1793061;79;22237;-93
2021/11/13 10:33:51;;;;;;;;;;;;;;;5.72;86.54;98252.30;1794228;80;26134;-94
2021/11/13 10:36:25;;;;;;;;;;;;;;;5.86;86.58;98255.83;1794110;80;24601;-93
2021/11/13 10:38:59;;;;;;;;;;;;;;;5.98;86.59;98254.36;1794539;80;20166;-93
2021/11/13 10:41:25;;;;;;;;;;;;;;;6.11;86.63;98252.76;1794164;79;25044;-93
2021/11/13 10:43:52;;;;;;;;;;;;;;;6.23;86.66;98253.84;1794597;80;22026;-93
2021/11/13 10:46:19;;;;;;;;;;;;;;;6.41;86.69;98245.50;1794200;79;26151;-94
2021/11/13 10:48:49;;;;;;;;;;;;;;;6.59;86.70;98244.47;1794661;80;24424;-96
2021/11/13 10:51:17;;;;;;;;;;;;;;;6.62;86.72;98246.89;1794541;80;20178;-95
2021/11/13 10:53:44;;;;;;;;;;;;;;;6.67;86.69;98242.26;1777460;79;24991;-94
2021/11/13 10:56:15;;;;;;;;;;;;;;;6.76;86.66;98243.05;1802321;79;21732;-95
2021/11/13 10:58:43;;;;;;;;;;;;;;;6.83;86.62;98238.31;1802177;79;25964;-94
2021/11/13 11:01:10;;;;;;;;;;;;;;;6.95;86.59;98242.34;1802253;79;24325;-94
2021/11/13 11:03:38;;;;;;;;;;;;;;;7.04;86.58;98238.36;1781658;79;20214;-94
2021/11/13 11:06:05;;;;;;;;;;;;;;;7.13;86.51;98237.38;1802184;79;24992;-94
2021/11/13 11:08:32;;;;;;;;;;;;;;;7.24;86.46;98238.04;1802116;79;22374;-94
2021/11/13 11:11:00;;;;;;;;;;;;;;;7.24;86.39;98239.80;1802318;79;26019;-96
2021/11/13 11:13:45;;;;;;;;;;;;;;;7.19;86.29;98243.14;1782244;79;24523;-96
2021/11/13 11:16:28;;;;;;;;;;;;;;;7.22;86.17;98232.54;1802576;79;20158;-95
2021/11/13 11:18:56;;;;;;;;;;;;;;;7.21;86.09;98225.19;1802645;79;25013;-95
2021/11/13 11:21:42;;;;;;;;;;;;;;;7.29;85.93;98226.05;1802501;79;21935;-96
2021/11/13 11:24:09;;;;;;;;;;;;;;;7.31;85.81;98227.61;1802135;79;26076;-96
2021/11/13 11:26:35;;;;;;;;;;;;;;;7.38;85.72;98228.09;1801071;79;24466;-96
2021/11/13 11:29:02;;;;;;;;;;;;;;;7.43;85.63;98226.88;1802515;79;20174;-95
2021/11/13 11:31:30;;;;;;;;;;;;;;;7.47;85.54;98228.36;1801711;79;24972;-95
2021/11/13 11:33:57;;;;;;;;;;;;;;;7.48;85.43;98224.84;1800213;79;21831;-94
2021/11/13 11:36:31;;;;;;;;;;;;;;;7.44;85.30;98230.33;1800922;79;25934;-93
2021/11/13 11:38:57;;;;;;;;;;;;;;;7.45;85.14;98230.70;1800863;79;24558;-95
2021/11/13 11:41:23;;;;;;;;;;;;;;;7.46;85.06;98233.22;1802385;79;20197;-95
2021/11/13 11:43:50;;;;;;;;;;;;;;;7.50;84.95;98226.89;1781906;79;25067;-96
2021/11/13 11:46:16;;;;;;;;;;;;;;;7.56;84.88;98225.22;1802300;79;21925;-95
2021/11/13 11:48:42;;;;;;;;;;;;;;;7.62;84.79;98224.02;1802501;79;26202;-95
2021/11/13 11:51:08;;;;;;;;;;;;;;;7.64;84.70;98229.14;1808355;79;24742;-94
2021/11/13 11:53:34;;;;;;;;;;;;;;;7.66;84.61;98222.88;1802354;79;20166;-94
2021/11/13 11:56:00;;;;;;;;;;;;;;;7.73;84.52;98222.89;1802170;79;25005;-95
2021/11/13 11:58:27;;;;;;;;;;;;;;;7.84;84.46;98215.71;1802126;79;20464;-95
2021/11/13 12:00:55;;;;;;;;;;;;;;;7.89;84.42;98224.07;1802308;79;26196;-94
2021/11/13 12:03:22;;;;;;;;;;;;;;;7.94;84.34;98220.72;1802000;79;24498;-95
2021/11/13 12:05:50;;;;;;;;;;;;;;;7.98;84.26;98220.42;1800746;79;20254;-94
2021/11/13 12:08:20;;;;;;;;;;;;;;;7.93;84.17;98217.73;1802131;79;25076;-94
2021/11/13 12:10:47;;;;;;;;;;;;;;;7.98;84.06;98216.51;1801925;79;21922;-96
2021/11/13 12:13:15;;;;;;;;;;;;;;;8.01;83.95;98219.87;1802071;79;26730;-95
2021/11/13 12:15:43;;;;;;;;;;;;;;;8.04;83.80;98222.27;1802076;79;24437;-94
2021/11/13 12:21:19;;;;;;;;;;;;;;;8.02;83.53;98217.14;1802385;79;21085;-94
2021/11/13 12:23:50;;;;;;;;;;;;;;;8.01;83.34;98217.27;1802007;79;22045;-96
2021/11/13 12:26:20;;;;;;;;;;;;;;;8.02;83.18;98212.42;1782137;79;27259;-94
2021/11/13 12:28:48;;;;;;;;;;;;;;;8.08;83.07;98208.10;1801270;79;24433;-92
2021/11/13 12:31:16;;;;;;;;;;;;;;;8.04;82.91;98207.94;1802089;79;20150;-94
2021/11/13 12:33:47;;;;;;;;;;;;;;;8.07;82.74;98211.67;1802296;79;25058;-95
2021/11/13 12:36:18;;;;;;;;;;;;;;;8.04;82.57;98215.28;1782254;79;22123;-94
2021/11/13 12:38:45;;;;;;;;;;;;;;;8.04;82.42;98210.08;1802008;79;25932;-94
2021/11/13 12:41:12;;;;;;;;;;;;;;;8.07;82.26;98207.30;1800891;79;24422;-95
2021/11/13 12:46:37;;;;;;;;;;;;;;;7.97;81.97;98208.31;1780780;79;24961;-93
2021/11/13 12:49:23;;;;;;;;;;;;;;;7.86;81.79;98209.45;1802487;79;21909;-95
2021/11/13 12:51:54;;;;;;;;;;;;;;;7.78;81.59;98211.72;1808786;79;26126;-96
2021/11/13 12:54:38;;;;;;;;;;;;;;;7.74;81.42;98209.41;1809365;79;24590;-95
2021/11/13 12:57:13;;;;;;;;;;;;;;;7.70;81.28;98209.20;1819233;79;20159;-94
2021/11/13 12:59:41;;;;;;;;;;;;;;;7.62;81.10;98205.78;1817335;79;25056;-96
2021/11/13 13:02:12;;;;;;;;;;;;;;;7.61;80.96;98210.61;1819867;79;21939;-94
2021/11/13 13:04:39;;;;;;;;;;;;;;;7.53;80.86;98205.02;1811201;79;26000;-94
2021/11/13 13:07:06;;;;;;;;;;;;;;;7.49;80.74;98211.36;1792269;79;24578;-96
2021/11/13 13:09:33;;;;;;;;;;;;;;;7.47;80.61;98211.94;1819674;79;20230;-94
2021/11/13 13:12:01;;;;;;;;;;;;;;;7.38;80.52;98203.36;1820131;79;25041;-95
2021/11/13 13:14:29;;;;;;;;;;;;;;;7.40;80.42;98202.35;1819954;79;22085;-94